Time,TemperatureF,DewpointF,PressureIn,WindDirection,WindDirectionDegrees,WindSpeedMPH,WindSpeedGustMPH,Humidity,HourlyPrecipIn,Conditions,Clouds,dailyrainin,SoftwareType,DateUTC
2013-03-19 00:09:00,29.5,26.0,30.14,SSE,153,2.0,-999.0,85,-99.99,,,0.00,weatherlink.com 1.10,2013-03-19 04:09:00,
2013-03-19 00:24:00,29.5,26.0,30.13,SSE,161,8.0,-999.0,87,-99.99,,,0.00,weatherlink.com 1.10,2013-03-19 04:24:00,
2013-03-19 00:39:00,29.5,26.0,30.12,SSE,156,8.0,-999.0,88,-99.99,,,0.00,weatherlink.com 1.10,2013-03-19 04:39:00,
2013-03-19 00:54:00,29.7,27.0,30.11,SE,142,7.0,-999.0,89,-99.99,,,0.00,weatherlink.com 1.10,2013-03-19 04:54:00,
2013-03-19 01:09:00,29.7,27.0,30.09,SSE,147,5.0,-999.0,90,-99.99,,,0.00,weatherlink.com 1.10,2013-03-19 05:09:00,
2013-03-19 01:24:00,29.8,27.0,30.07,SSE,154,9.0,-999.0,90,-99.99,,,0.00,weatherlink.com 1.10,2013-03-19 05:24:00,
2013-03-19 01:39:00,29.8,27.0,30.05,South,177,6.0,-999.0,90,-99.99,,,0.00,weatherlink.com 1.10,2013-03-19 05:39:00,
2013-03-19 01:54:00,30.0,28.0,30.04,SE,130,7.0,-999.0,90,-99.99,,,0.00,weatherlink.com 1.10,2013-03-19 05:54:00,
2013-03-19 02:09:00,29.8,28.0,30.02,South,170,6.0,-999.0,91,-99.99,,,0.00,weatherlink.com 1.10,2013-03-19 06:09:00,
2013-03-19 02:24:00,30.0,28.0,30.02,SSE,168,5.0,-999.0,91,-99.99,,,0.00,weatherlink.com 1.10,2013-03-19 06:24:00,
2013-03-19 02:39:00,30.1,28.0,30.00,SSE,168,8.0,-999.0,91,-99.99,,,0.00,weatherlink.com 1.10,2013-03-19 06:39:00,
2013-03-19 02:54:00,30.1,28.0,29.99,South,187,8.0,-999.0,91,-99.99,,,0.00,weatherlink.com 1.10,2013-03-19 06:54:00,
2013-03-19 03:09:00,30.1,28.0,29.98,SSE,156,6.0,-999.0,91,-99.99,,,0.00,weatherlink.com 1.10,2013-03-19 07:09:00,
2013-03-19 03:24:00,30.3,28.0,29.97,SSE,160,5.0,-999.0,90,-99.99,,,0.00,weatherlink.com 1.10,2013-03-19 07:24:00,
2013-03-19 03:39:00,30.6,28.0,29.96,SSE,147,11.0,-999.0,90,-99.99,,,0.00,weatherlink.com 1.10,2013-03-19 07:39:00,
2013-03-19 03:54:00,30.9,28.0,29.96,SE,136,5.0,-999.0,90,-99.99,,,0.00,weatherlink.com 1.10,2013-03-19 07:54:00,
2013-03-19 04:09:00,31.2,29.0,29.96,SE,143,5.0,-999.0,90,-99.99,,,0.00,weatherlink.com 1.10,2013-03-19 08:09:00,
2013-03-19 04:24:00,31.3,29.0,29.96,South,171,8.0,-999.0,90,-99.99,,,0.00,weatherlink.com 1.10,2013-03-19 08:24:00,
2013-03-19 04:39:00,31.3,29.0,29.94,SE,144,17.0,-999.0,89,-99.99,,,0.00,weatherlink.com 1.10,2013-03-19 08:39:00,
2013-03-19 04:54:00,31.5,29.0,29.92,SSE,156,10.0,-999.0,89,-99.99,,,0.00,weatherlink.com 1.10,2013-03-19 08:54:00,
2013-03-19 05:09:00,31.5,29.0,29.91,South,185,16.0,-999.0,89,-99.99,,,0.00,weatherlink.com 1.10,2013-03-19 09:09:00,
2013-03-19 05:24:00,31.5,28.0,29.91,SSE,151,3.0,-999.0,88,-99.99,,,0.00,weatherlink.com 1.10,2013-03-19 09:24:00,
2013-03-19 05:40:00,31.8,29.0,29.91,SSE,147,7.0,-999.0,89,-99.99,,,0.00,weatherlink.com 1.10,2013-03-19 09:40:00,
2013-03-19 05:55:00,32.1,29.0,29.90,South,180,2.0,-999.0,89,-99.99,,,0.00,weatherlink.com 1.10,2013-03-19 09:55:00,
2013-03-19 06:10:00,32.1,29.0,29.91,SE,130,6.0,-999.0,89,-99.99,,,0.00,weatherlink.com 1.10,2013-03-19 10:10:00,
2013-03-19 06:25:00,32.2,30.0,29.90,SSE,150,10.0,-999.0,90,-99.99,,,0.00,weatherlink.com 1.10,2013-03-19 10:25:00,
2013-03-19 06:40:00,32.2,30.0,29.90,SSE,147,5.0,-999.0,91,-99.99,,,0.00,weatherlink.com 1.10,2013-03-19 10:40:00,
2013-03-19 07:10:00,32.2,30.0,29.90,SSE,160,6.0,-999.0,92,-99.99,,,0.00,weatherlink.com 1.10,2013-03-19 11:10:00,
2013-03-19 07:25:00,32.2,30.0,29.88,SE,144,8.0,-999.0,93,-99.99,,,0.00,weatherlink.com 1.10,2013-03-19 11:25:00,
2013-03-19 07:40:00,32.4,31.0,29.87,ESE,106,11.0,-999.0,93,-99.99,,,0.00,weatherlink.com 1.10,2013-03-19 11:40:00,
2013-03-19 07:55:00,32.5,31.0,29.85,SSE,167,13.0,-999.0,94,-99.99,,,0.00,weatherlink.com 1.10,2013-03-19 11:55:00,
2013-03-19 08:10:00,32.8,31.0,29.84,SSE,147,6.0,-999.0,94,-99.99,,,0.00,weatherlink.com 1.10,2013-03-19 12:10:00,
2013-03-19 08:25:00,33.2,32.0,29.83,ESE,105,6.0,-999.0,94,-99.99,,,0.00,weatherlink.com 1.10,2013-03-19 12:25:00,
2013-03-19 08:40:00,33.4,32.0,29.82,SSE,161,8.0,-999.0,95,-99.99,,,0.00,weatherlink.com 1.10,2013-03-19 12:40:00,
2013-03-19 08:55:00,33.7,33.0,29.82,SSE,147,8.0,-999.0,95,-99.99,,,0.00,weatherlink.com 1.10,2013-03-19 12:55:00,
2013-03-19 09:10:00,34.0,33.0,29.80,SE,132,10.0,-999.0,95,-99.99,,,0.02,weatherlink.com 1.10,2013-03-19 13:10:00,
2013-03-19 09:25:00,34.3,33.0,29.80,SE,142,17.0,-999.0,95,-99.99,,,0.04,weatherlink.com 1.10,2013-03-19 13:25:00,
2013-03-19 09:40:00,34.7,34.0,29.78,SE,142,5.0,-999.0,95,-99.99,,,0.06,weatherlink.com 1.10,2013-03-19 13:40:00,
2013-03-19 09:55:00,35.0,34.0,29.77,SE,143,11.0,-999.0,95,-99.99,,,0.08,weatherlink.com 1.10,2013-03-19 13:55:00,
2013-03-19 10:10:00,35.2,34.0,29.77,SSE,167,9.0,-999.0,95,-99.99,,,0.11,weatherlink.com 1.10,2013-03-19 14:10:00,
2013-03-19 10:25:00,35.5,34.0,29.75,ESE,118,10.0,-999.0,95,-99.99,,,0.15,weatherlink.com 1.10,2013-03-19 14:25:00,
2013-03-19 10:40:00,35.9,35.0,29.74,SSE,164,11.0,-999.0,95,-99.99,,,0.19,weatherlink.com 1.10,2013-03-19 14:40:00,
2013-03-19 10:55:00,36.0,35.0,29.74,SE,132,5.0,-999.0,95,-99.99,,,0.23,weatherlink.com 1.10,2013-03-19 14:55:00,
2013-03-19 11:10:00,36.3,35.0,29.72,SE,139,7.0,-999.0,95,-99.99,,,0.29,weatherlink.com 1.10,2013-03-19 15:10:00,
2013-03-19 11:25:00,36.6,-99.9,29.71,South,174,10.0,-999.0,-999,-99.99,,,0.33,weatherlink.com 1.10,2013-03-19 15:25:00,
2013-03-19 11:40:00,36.6,-99.9,29.70,SE,129,8.0,-999.0,-999,-99.99,,,0.38,weatherlink.com 1.10,2013-03-19 15:40:00,
2013-03-19 11:55:00,36.8,-99.9,29.68,SE,134,7.0,-999.0,-999,-99.99,,,0.44,weatherlink.com 1.10,2013-03-19 15:55:00,
2013-03-19 12:10:00,36.9,19.0,29.68,SE,132,17.0,-999.0,49,-99.99,,,0.48,weatherlink.com 1.10,2013-03-19 16:10:00,
2013-03-19 12:25:00,37.0,-99.9,29.66,SSE,147,13.0,-999.0,-999,-99.99,,,0.51,weatherlink.com 1.10,2013-03-19 16:25:00,
2013-03-19 12:40:00,37.3,-99.9,29.65,East,95,6.0,-999.0,-999,-99.99,,,0.54,weatherlink.com 1.10,2013-03-19 16:40:00,
2013-03-19 12:55:00,37.6,38.0,29.63,SSE,150,5.0,-999.0,100,-99.99,,,0.57,weatherlink.com 1.10,2013-03-19 16:55:00,
2013-03-19 13:10:00,37.8,38.0,29.62,ESE,115,8.0,-999.0,100,-99.99,,,0.60,weatherlink.com 1.10,2013-03-19 17:10:00,
2013-03-19 13:25:00,38.0,-2.0,29.60,SE,130,5.0,-999.0,18,-99.99,,,0.63,weatherlink.com 1.10,2013-03-19 17:25:00,
2013-03-19 13:41:00,38.3,-99.9,29.59,SSE,163,1.0,-999.0,-999,-99.99,,,0.66,weatherlink.com 1.10,2013-03-19 17:41:00,
2013-03-19 13:56:00,38.6,39.0,29.57,ESE,118,11.0,-999.0,100,-99.99,,,0.68,weatherlink.com 1.10,2013-03-19 17:56:00,
2013-03-19 14:26:00,39.1,-1.0,29.53,SE,126,9.0,-999.0,18,-99.99,,,0.72,weatherlink.com 1.10,2013-03-19 18:26:00,
2013-03-19 14:56:00,39.6,40.0,29.49,SSE,158,7.0,-999.0,100,-99.99,,,0.75,weatherlink.com 1.10,2013-03-19 18:56:00,
2013-03-19 15:11:00,39.9,-99.9,29.49,ESE,106,6.0,-999.0,-999,-99.99,,,0.76,weatherlink.com 1.10,2013-03-19 19:11:00,
2013-03-19 15:26:00,40.2,40.0,29.49,East,101,3.0,-999.0,100,-99.99,,,0.78,weatherlink.com 1.10,2013-03-19 19:26:00,
2013-03-19 15:41:00,40.5,41.0,29.49,ESE,106,1.0,-999.0,100,-99.99,,,0.81,weatherlink.com 1.10,2013-03-19 19:41:00,
2013-03-19 15:56:00,40.5,41.0,29.47,North,7,3.0,-999.0,100,-99.99,,,0.81,weatherlink.com 1.10,2013-03-19 19:56:00,
2013-03-19 16:11:00,40.3,40.0,29.48,NE,50,6.0,-999.0,100,-99.99,,,0.82,weatherlink.com 1.10,2013-03-19 20:11:00,
2013-03-19 16:26:00,39.5,40.0,29.47,NE,54,9.0,-999.0,100,-99.99,,,0.83,weatherlink.com 1.10,2013-03-19 20:26:00,
2013-03-19 16:41:00,39.1,39.0,29.46,East,98,3.0,-999.0,100,-99.99,,,0.84,weatherlink.com 1.10,2013-03-19 20:41:00,
2013-03-19 16:56:00,39.1,39.0,29.44,East,85,5.0,-999.0,100,-99.99,,,0.84,weatherlink.com 1.10,2013-03-19 20:56:00,
2013-03-19 17:27:00,39.5,40.0,29.43,NE,54,7.0,-999.0,100,-99.99,,,0.85,weatherlink.com 1.10,2013-03-19 21:27:00,
2013-03-19 17:42:00,39.3,39.0,29.41,ENE,71,7.0,-999.0,100,-99.99,,,0.85,weatherlink.com 1.10,2013-03-19 21:42:00,
2013-03-19 17:57:00,39.3,39.0,29.42,NE,54,5.0,-999.0,100,-99.99,,,0.85,weatherlink.com 1.10,2013-03-19 21:57:00,
2013-03-19 18:12:00,39.1,39.0,29.42,NE,54,2.0,-999.0,100,-99.99,,,0.85,weatherlink.com 1.10,2013-03-19 22:12:00,
2013-03-19 18:27:00,39.1,39.0,29.42,NE,54,2.0,-999.0,100,-99.99,,,0.85,weatherlink.com 1.10,2013-03-19 22:27:00,
2013-03-19 18:42:00,38.8,39.0,29.44,North,352,8.0,-999.0,100,-99.99,,,0.85,weatherlink.com 1.10,2013-03-19 22:42:00,
2013-03-19 18:57:00,38.3,38.0,29.45,North,2,14.0,-999.0,100,-99.99,,,0.85,weatherlink.com 1.10,2013-03-19 22:57:00,
2013-03-19 19:12:00,37.8,38.0,29.45,NNW,342,9.0,-999.0,100,-99.99,,,0.85,weatherlink.com 1.10,2013-03-19 23:12:00,
2013-03-19 19:27:00,37.2,37.0,29.46,North,6,5.0,-999.0,100,-99.99,,,0.85,weatherlink.com 1.10,2013-03-19 23:27:00,
2013-03-19 19:42:00,36.6,37.0,29.45,North,0,6.0,-999.0,100,-99.99,,,0.85,weatherlink.com 1.10,2013-03-19 23:42:00,
2013-03-19 19:57:00,36.3,36.0,29.46,NE,54,13.0,-999.0,100,-99.99,,,0.85,weatherlink.com 1.10,2013-03-19 23:57:00,
2013-03-19 20:12:00,36.0,36.0,29.46,North,5,11.0,-999.0,100,-99.99,,,0.85,weatherlink.com 1.10,2013-03-20 00:12:00,
2013-03-19 20:27:00,35.8,36.0,29.46,NE,54,6.0,-999.0,100,-99.99,,,0.85,weatherlink.com 1.10,2013-03-20 00:27:00,
2013-03-19 20:43:00,35.6,36.0,29.47,North,355,7.0,-999.0,100,-99.99,,,0.85,weatherlink.com 1.10,2013-03-20 00:43:00,
2013-03-19 20:58:00,35.3,35.0,29.49,NNE,16,6.0,-999.0,100,-99.99,,,0.85,weatherlink.com 1.10,2013-03-20 00:58:00,
2013-03-19 21:13:00,35.0,35.0,29.51,North,9,4.0,-999.0,100,-99.99,,,0.85,weatherlink.com 1.10,2013-03-20 01:13:00,
2013-03-19 21:28:00,34.4,34.0,29.51,North,5,10.0,-999.0,100,-99.99,,,0.85,weatherlink.com 1.10,2013-03-20 01:28:00,
2013-03-19 21:43:00,33.5,34.0,29.52,NNE,13,11.0,-999.0,100,-99.99,,,0.86,weatherlink.com 1.10,2013-03-20 01:43:00,
2013-03-19 21:58:00,33.1,-99.9,29.52,North,358,6.0,-999.0,0,-99.99,,,0.87,weatherlink.com 1.10,2013-03-20 01:58:00,
2013-03-19 22:13:00,32.9,33.0,29.53,NNW,348,9.0,-999.0,100,-99.99,,,0.87,weatherlink.com 1.10,2013-03-20 02:13:00,
2013-03-19 22:28:00,32.8,-99.9,29.53,NNE,16,8.0,-999.0,0,-99.99,,,0.87,weatherlink.com 1.10,2013-03-20 02:28:00,
2013-03-19 22:43:00,32.8,33.0,29.54,NNW,348,10.0,-999.0,100,-99.99,,,0.87,weatherlink.com 1.10,2013-03-20 02:43:00,
2013-03-19 22:58:00,32.5,33.0,29.54,NNE,13,9.0,-999.0,100,-99.99,,,0.87,weatherlink.com 1.10,2013-03-20 02:58:00,
2013-03-19 23:13:00,32.4,32.0,29.54,North,9,11.0,-999.0,100,-99.99,,,0.87,weatherlink.com 1.10,2013-03-20 03:13:00,
2013-03-19 23:28:00,32.1,32.0,29.55,North,7,7.0,-999.0,100,-99.99,,,0.87,weatherlink.com 1.10,2013-03-20 03:28:00,
2013-03-19 23:43:00,31.2,31.0,29.56,NNW,342,13.0,-999.0,100,-99.99,,,0.87,weatherlink.com 1.10,2013-03-20 03:43:00,
2013-03-19 23:58:00,30.6,31.0,29.57,North,6,11.0,-999.0,100,-99.99,,,0.87,weatherlink.com 1.10,2013-03-20 03:58:00,